sensor_id;sensor_type;location;lat;lon;timestamp;temperature;humidity
44695;DHT22;32845;59.422;17.930;2023-05-16T00:03:41;12.00;99.90
44695;DHT22;32845;59.422;17.930;2023-05-16T00:08:12;11.90;99.90
44695;DHT22;32845;59.422;17.930;2023-05-16T00:12:43;11.80;99.90
44695;DHT22;32845;59.422;17.930;2023-05-16T00:17:13;11.80;99.90
44695;DHT22;32845;59.422;17.930;2023-05-16T00:21:46;11.70;99.90
44695;DHT22;32845;59.422;17.930;2023-05-16T00:26:18;11.60;99.90
44695;DHT22;32845;59.422;17.930;2023-05-16T00:30:48;11.60;99.90
44695;DHT22;32845;59.422;17.930;2023-05-16T00:35:19;11.50;99.90
44695;DHT22;32845;59.422;17.930;2023-05-16T00:39:50;11.50;99.90
44695;DHT22;32845;59.422;17.930;2023-05-16T00:44:20;11.60;99.90
44695;DHT22;32845;59.422;17.930;2023-05-16T00:48:51;11.60;99.90
44695;DHT22;32845;59.422;17.930;2023-05-16T00:53:23;11.50;99.90
44695;DHT22;32845;59.422;17.930;2023-05-16T00:57:54;11.50;99.90
44695;DHT22;32845;59.422;17.930;2023-05-16T01:02:25;11.50;99.90
44695;DHT22;32845;59.422;17.930;2023-05-16T01:06:57;11.60;99.90
44695;DHT22;32845;59.422;17.930;2023-05-16T01:12:13;11.60;99.90
44695;DHT22;32845;59.422;17.930;2023-05-16T01:16:46;11.60;99.90
44695;DHT22;32845;59.422;17.930;2023-05-16T01:21:38;11.60;99.90
44695;DHT22;32845;59.422;17.930;2023-05-16T01:26:27;11.70;99.90
44695;DHT22;32845;59.422;17.930;2023-05-16T01:30:57;11.70;99.90
44695;DHT22;32845;59.422;17.930;2023-05-16T01:35:28;11.80;99.90
44695;DHT22;32845;59.422;17.930;2023-05-16T01:40:06;11.80;99.90
44695;DHT22;32845;59.422;17.930;2023-05-16T01:44:53;11.90;99.90
44695;DHT22;32845;59.422;17.930;2023-05-16T01:49:34;11.90;99.90
44695;DHT22;32845;59.422;17.930;2023-05-16T01:54:10;11.90;99.90
44695;DHT22;32845;59.422;17.930;2023-05-16T01:58:42;12.00;99.90
44695;DHT22;32845;59.422;17.930;2023-05-16T02:03:13;11.90;99.90
44695;DHT22;32845;59.422;17.930;2023-05-16T02:07:44;11.90;99.90
44695;DHT22;32845;59.422;17.930;2023-05-16T02:12:15;12.00;99.90
44695;DHT22;32845;59.422;17.930;2023-05-16T02:16:47;12.00;99.90
44695;DHT22;32845;59.422;17.930;2023-05-16T02:21:17;12.00;99.90
44695;DHT22;32845;59.422;17.930;2023-05-16T02:25:48;12.10;99.90
44695;DHT22;32845;59.422;17.930;2023-05-16T02:30:19;12.10;99.90
44695;DHT22;32845;59.422;17.930;2023-05-16T02:34:49;12.10;99.90
44695;DHT22;32845;59.422;17.930;2023-05-16T02:39:20;12.20;99.90
44695;DHT22;32845;59.422;17.930;2023-05-16T02:43:50;12.20;99.90
44695;DHT22;32845;59.422;17.930;2023-05-16T02:48:21;12.20;99.90
44695;DHT22;32845;59.422;17.930;2023-05-16T02:52:52;12.20;99.90
44695;DHT22;32845;59.422;17.930;2023-05-16T02:57:22;12.20;99.90
44695;DHT22;32845;59.422;17.930;2023-05-16T03:01:53;12.20;99.90
44695;DHT22;32845;59.422;17.930;2023-05-16T03:06:23;12.20;99.90
44695;DHT22;32845;59.422;17.930;2023-05-16T03:10:54;12.20;99.90
44695;DHT22;32845;59.422;17.930;2023-05-16T03:15:25;12.20;99.90
44695;DHT22;32845;59.422;17.930;2023-05-16T03:19:56;12.30;99.90
44695;DHT22;32845;59.422;17.930;2023-05-16T03:24:26;12.30;99.90
44695;DHT22;32845;59.422;17.930;2023-05-16T03:28:57;12.30;99.90
44695;DHT22;32845;59.422;17.930;2023-05-16T03:33:28;12.30;99.90
44695;DHT22;32845;59.422;17.930;2023-05-16T03:37:59;12.40;99.90
44695;DHT22;32845;59.422;17.930;2023-05-16T03:42:30;12.40;99.90
44695;DHT22;32845;59.422;17.930;2023-05-16T03:47:01;12.40;99.90
44695;DHT22;32845;59.422;17.930;2023-05-16T03:51:32;12.40;99.90
44695;DHT22;32845;59.422;17.930;2023-05-16T03:56:02;12.50;99.90
44695;DHT22;32845;59.422;17.930;2023-05-16T04:00:33;12.50;99.90
44695;DHT22;32845;59.422;17.930;2023-05-16T04:05:07;12.50;99.90
44695;DHT22;32845;59.422;17.930;2023-05-16T04:09:38;12.50;99.90
44695;DHT22;32845;59.422;17.930;2023-05-16T04:14:09;12.60;99.90
44695;DHT22;32845;59.422;17.930;2023-05-16T04:18:39;12.60;99.90
44695;DHT22;32845;59.422;17.930;2023-05-16T04:23:10;12.70;99.90
44695;DHT22;32845;59.422;17.930;2023-05-16T04:27:41;12.70;99.90
44695;DHT22;32845;59.422;17.930;2023-05-16T04:32:12;12.80;99.90
44695;DHT22;32845;59.422;17.930;2023-05-16T04:36:43;12.80;99.90
44695;DHT22;32845;59.422;17.930;2023-05-16T04:41:14;12.80;99.90
44695;DHT22;32845;59.422;17.930;2023-05-16T04:45:44;12.80;99.90
44695;DHT22;32845;59.422;17.930;2023-05-16T04:50:16;12.80;99.90
44695;DHT22;32845;59.422;17.930;2023-05-16T04:54:49;12.80;99.90
44695;DHT22;32845;59.422;17.930;2023-05-16T04:59:21;12.80;99.90
44695;DHT22;32845;59.422;17.930;2023-05-16T05:03:52;12.80;99.90
44695;DHT22;32845;59.422;17.930;2023-05-16T05:08:22;12.80;99.90
44695;DHT22;32845;59.422;17.930;2023-05-16T05:12:53;12.80;99.90
44695;DHT22;32845;59.422;17.930;2023-05-16T05:17:24;12.70;99.90
44695;DHT22;32845;59.422;17.930;2023-05-16T05:21:54;12.70;99.90
44695;DHT22;32845;59.422;17.930;2023-05-16T05:26:25;12.60;99.90
44695;DHT22;32845;59.422;17.930;2023-05-16T05:30:56;12.60;99.90
44695;DHT22;32845;59.422;17.930;2023-05-16T05:35:26;12.60;99.90
44695;DHT22;32845;59.422;17.930;2023-05-16T05:39:57;12.60;99.90
44695;DHT22;32845;59.422;17.930;2023-05-16T05:44:28;12.60;99.90
44695;DHT22;32845;59.422;17.930;2023-05-16T05:48:59;12.60;99.90
44695;DHT22;32845;59.422;17.930;2023-05-16T05:53:35;12.60;99.90
44695;DHT22;32845;59.422;17.930;2023-05-16T05:58:06;12.60;99.90
44695;DHT22;32845;59.422;17.930;2023-05-16T06:02:36;12.60;99.90
44695;DHT22;32845;59.422;17.930;2023-05-16T06:07:07;12.60;99.90
44695;DHT22;32845;59.422;17.930;2023-05-16T06:11:38;12.60;99.90
44695;DHT22;32845;59.422;17.930;2023-05-16T06:16:09;12.60;99.90
44695;DHT22;32845;59.422;17.930;2023-05-16T06:20:39;12.60;99.90
44695;DHT22;32845;59.422;17.930;2023-05-16T06:25:10;12.60;99.90
44695;DHT22;32845;59.422;17.930;2023-05-16T06:29:41;12.60;99.90
44695;DHT22;32845;59.422;17.930;2023-05-16T06:34:11;12.70;99.90
44695;DHT22;32845;59.422;17.930;2023-05-16T06:38:42;12.80;99.90
44695;DHT22;32845;59.422;17.930;2023-05-16T06:43:12;12.80;99.90
44695;DHT22;32845;59.422;17.930;2023-05-16T06:47:43;12.90;99.90
44695;DHT22;32845;59.422;17.930;2023-05-16T06:52:13;12.90;99.90
44695;DHT22;32845;59.422;17.930;2023-05-16T06:56:44;13.00;99.90
44695;DHT22;32845;59.422;17.930;2023-05-16T07:01:15;13.00;99.90
44695;DHT22;32845;59.422;17.930;2023-05-16T07:05:46;13.10;99.90
44695;DHT22;32845;59.422;17.930;2023-05-16T07:10:16;13.10;99.90
44695;DHT22;32845;59.422;17.930;2023-05-16T07:14:47;13.10;99.90
44695;DHT22;32845;59.422;17.930;2023-05-16T07:19:17;13.10;99.90
44695;DHT22;32845;59.422;17.930;2023-05-16T07:23:48;13.20;99.90
44695;DHT22;32845;59.422;17.930;2023-05-16T07:28:18;13.20;99.90
44695;DHT22;32845;59.422;17.930;2023-05-16T07:32:54;13.10;99.90
44695;DHT22;32845;59.422;17.930;2023-05-16T07:37:25;13.10;99.90
44695;DHT22;32845;59.422;17.930;2023-05-16T07:41:55;13.10;99.90
44695;DHT22;32845;59.422;17.930;2023-05-16T07:46:26;13.10;99.90
44695;DHT22;32845;59.422;17.930;2023-05-16T07:50:57;13.10;99.90
44695;DHT22;32845;59.422;17.930;2023-05-16T07:55:27;13.10;99.90
44695;DHT22;32845;59.422;17.930;2023-05-16T07:59:58;13.20;99.90
44695;DHT22;32845;59.422;17.930;2023-05-16T08:04:28;13.20;99.90
44695;DHT22;32845;59.422;17.930;2023-05-16T08:08:59;13.30;99.90
44695;DHT22;32845;59.422;17.930;2023-05-16T08:13:30;13.30;99.90
44695;DHT22;32845;59.422;17.930;2023-05-16T08:18:01;13.40;99.90
44695;DHT22;32845;59.422;17.930;2023-05-16T08:22:31;13.40;99.90
44695;DHT22;32845;59.422;17.930;2023-05-16T08:27:02;13.50;99.90
44695;DHT22;32845;59.422;17.930;2023-05-16T08:31:33;13.60;99.90
44695;DHT22;32845;59.422;17.930;2023-05-16T08:36:04;13.70;99.90
44695;DHT22;32845;59.422;17.930;2023-05-16T08:40:35;13.90;99.90
44695;DHT22;32845;59.422;17.930;2023-05-16T08:45:07;14.00;99.90
44695;DHT22;32845;59.422;17.930;2023-05-16T08:49:39;13.90;99.90
44695;DHT22;32845;59.422;17.930;2023-05-16T08:54:13;13.90;99.90
44695;DHT22;32845;59.422;17.930;2023-05-16T08:58:44;14.00;99.90
44695;DHT22;32845;59.422;17.930;2023-05-16T09:03:16;14.00;99.90
44695;DHT22;32845;59.422;17.930;2023-05-16T09:07:46;14.00;99.90
44695;DHT22;32845;59.422;17.930;2023-05-16T09:12:19;14.00;99.90
44695;DHT22;32845;59.422;17.930;2023-05-16T09:17:06;14.00;99.90
44695;DHT22;32845;59.422;17.930;2023-05-16T09:21:38;14.00;99.90
44695;DHT22;32845;59.422;17.930;2023-05-16T09:26:09;13.90;99.90
44695;DHT22;32845;59.422;17.930;2023-05-16T09:30:40;14.00;99.90
44695;DHT22;32845;59.422;17.930;2023-05-16T09:35:15;13.90;99.90
44695;DHT22;32845;59.422;17.930;2023-05-16T09:44:17;13.90;99.90
44695;DHT22;32845;59.422;17.930;2023-05-16T09:48:50;13.90;99.90
44695;DHT22;32845;59.422;17.930;2023-05-16T09:53:31;13.90;99.90
44695;DHT22;32845;59.422;17.930;2023-05-16T09:58:02;13.80;99.90
44695;DHT22;32845;59.422;17.930;2023-05-16T10:02:34;13.70;99.90
44695;DHT22;32845;59.422;17.930;2023-05-16T10:07:05;13.70;99.90
44695;DHT22;32845;59.422;17.930;2023-05-16T10:11:41;13.70;99.90
44695;DHT22;32845;59.422;17.930;2023-05-16T10:16:13;13.70;99.90
44695;DHT22;32845;59.422;17.930;2023-05-16T10:20:46;13.70;99.90
44695;DHT22;32845;59.422;17.930;2023-05-16T10:29:58;13.70;99.90
44695;DHT22;32845;59.422;17.930;2023-05-16T10:34:29;13.70;99.90
44695;DHT22;32845;59.422;17.930;2023-05-16T10:39:00;13.70;99.90
44695;DHT22;32845;59.422;17.930;2023-05-16T10:43:31;13.70;99.90
44695;DHT22;32845;59.422;17.930;2023-05-16T10:48:04;13.70;99.90
44695;DHT22;32845;59.422;17.930;2023-05-16T10:52:35;13.80;99.90
44695;DHT22;32845;59.422;17.930;2023-05-16T10:57:16;13.80;99.90
44695;DHT22;32845;59.422;17.930;2023-05-16T11:01:53;13.90;99.90
44695;DHT22;32845;59.422;17.930;2023-05-16T11:06:29;13.90;99.90
44695;DHT22;32845;59.422;17.930;2023-05-16T11:16:26;13.80;99.90
44695;DHT22;32845;59.422;17.930;2023-05-16T11:21:02;13.80;99.90
44695;DHT22;32845;59.422;17.930;2023-05-16T11:25:36;13.80;99.90
44695;DHT22;32845;59.422;17.930;2023-05-16T11:30:15;13.90;99.90
44695;DHT22;32845;59.422;17.930;2023-05-16T11:34:47;13.90;99.90
44695;DHT22;32845;59.422;17.930;2023-05-16T11:39:18;13.90;99.90
44695;DHT22;32845;59.422;17.930;2023-05-16T11:43:49;13.90;99.90
44695;DHT22;32845;59.422;17.930;2023-05-16T11:48:23;13.90;99.90
44695;DHT22;32845;59.422;17.930;2023-05-16T11:52:54;13.80;99.90
44695;DHT22;32845;59.422;17.930;2023-05-16T11:57:26;13.80;99.90
44695;DHT22;32845;59.422;17.930;2023-05-16T12:01:57;13.80;99.90
44695;DHT22;32845;59.422;17.930;2023-05-16T12:06:32;13.80;99.90
44695;DHT22;32845;59.422;17.930;2023-05-16T12:11:03;13.80;99.90
44695;DHT22;32845;59.422;17.930;2023-05-16T12:15:33;13.80;99.90
44695;DHT22;32845;59.422;17.930;2023-05-16T12:20:05;13.80;99.90
44695;DHT22;32845;59.422;17.930;2023-05-16T12:24:39;13.80;99.90
44695;DHT22;32845;59.422;17.930;2023-05-16T12:29:10;13.80;99.90
44695;DHT22;32845;59.422;17.930;2023-05-16T12:33:40;13.80;99.90
44695;DHT22;32845;59.422;17.930;2023-05-16T12:38:13;13.80;99.90
44695;DHT22;32845;59.422;17.930;2023-05-16T12:42:44;13.90;99.90
44695;DHT22;32845;59.422;17.930;2023-05-16T12:47:15;13.80;99.90
44695;DHT22;32845;59.422;17.930;2023-05-16T12:51:50;13.90;99.90
44695;DHT22;32845;59.422;17.930;2023-05-16T12:56:21;13.90;99.90
44695;DHT22;32845;59.422;17.930;2023-05-16T13:00:52;13.90;99.90
44695;DHT22;32845;59.422;17.930;2023-05-16T13:05:23;13.90;99.90
44695;DHT22;32845;59.422;17.930;2023-05-16T13:09:53;13.90;99.90
44695;DHT22;32845;59.422;17.930;2023-05-16T13:14:24;13.90;99.90
44695;DHT22;32845;59.422;17.930;2023-05-16T13:18:54;14.00;99.90
44695;DHT22;32845;59.422;17.930;2023-05-16T13:23:25;14.00;99.90
44695;DHT22;32845;59.422;17.930;2023-05-16T13:27:56;14.00;99.90
44695;DHT22;32845;59.422;17.930;2023-05-16T13:32:27;14.10;99.90
44695;DHT22;32845;59.422;17.930;2023-05-16T13:36:57;14.20;99.90
44695;DHT22;32845;59.422;17.930;2023-05-16T13:41:28;14.20;99.90
44695;DHT22;32845;59.422;17.930;2023-05-16T13:45:58;14.20;99.90
44695;DHT22;32845;59.422;17.930;2023-05-16T13:50:29;14.20;99.90
44695;DHT22;32845;59.422;17.930;2023-05-16T13:55:00;14.20;99.90
44695;DHT22;32845;59.422;17.930;2023-05-16T13:59:30;14.20;99.90
44695;DHT22;32845;59.422;17.930;2023-05-16T14:04:02;14.20;99.90
44695;DHT22;32845;59.422;17.930;2023-05-16T14:08:32;14.20;99.90
44695;DHT22;32845;59.422;17.930;2023-05-16T14:13:03;14.20;99.90
44695;DHT22;32845;59.422;17.930;2023-05-16T14:17:34;14.20;99.90
44695;DHT22;32845;59.422;17.930;2023-05-16T14:22:04;14.20;99.90
44695;DHT22;32845;59.422;17.930;2023-05-16T14:26:35;14.20;99.90
44695;DHT22;32845;59.422;17.930;2023-05-16T14:31:06;14.20;99.90
44695;DHT22;32845;59.422;17.930;2023-05-16T14:35:36;14.30;99.90
44695;DHT22;32845;59.422;17.930;2023-05-16T14:40:10;14.30;99.90
44695;DHT22;32845;59.422;17.930;2023-05-16T14:44:41;14.30;99.90
44695;DHT22;32845;59.422;17.930;2023-05-16T14:49:12;14.30;99.90
44695;DHT22;32845;59.422;17.930;2023-05-16T14:53:43;14.30;99.90
44695;DHT22;32845;59.422;17.930;2023-05-16T14:58:13;14.30;99.90
44695;DHT22;32845;59.422;17.930;2023-05-16T15:02:44;14.40;99.90
44695;DHT22;32845;59.422;17.930;2023-05-16T15:07:15;14.40;99.90
44695;DHT22;32845;59.422;17.930;2023-05-16T15:11:45;14.50;99.90
44695;DHT22;32845;59.422;17.930;2023-05-16T15:16:16;14.50;99.90
44695;DHT22;32845;59.422;17.930;2023-05-16T15:20:47;14.50;99.90
44695;DHT22;32845;59.422;17.930;2023-05-16T15:25:18;14.50;99.90
44695;DHT22;32845;59.422;17.930;2023-05-16T15:29:48;14.50;99.90
44695;DHT22;32845;59.422;17.930;2023-05-16T15:34:19;14.50;99.90
44695;DHT22;32845;59.422;17.930;2023-05-16T15:38:49;14.50;99.90
44695;DHT22;32845;59.422;17.930;2023-05-16T15:43:20;14.50;99.90
44695;DHT22;32845;59.422;17.930;2023-05-16T15:47:51;14.50;99.90
44695;DHT22;32845;59.422;17.930;2023-05-16T15:52:21;14.60;99.90
44695;DHT22;32845;59.422;17.930;2023-05-16T15:56:52;14.60;99.90
44695;DHT22;32845;59.422;17.930;2023-05-16T16:01:22;14.60;99.90
44695;DHT22;32845;59.422;17.930;2023-05-16T16:05:53;14.60;99.90
44695;DHT22;32845;59.422;17.930;2023-05-16T16:10:23;14.60;99.90
44695;DHT22;32845;59.422;17.930;2023-05-16T16:14:55;14.60;99.90
44695;DHT22;32845;59.422;17.930;2023-05-16T16:19:26;14.60;99.90
44695;DHT22;32845;59.422;17.930;2023-05-16T16:23:56;14.60;99.90
44695;DHT22;32845;59.422;17.930;2023-05-16T16:28:27;14.60;99.90
44695;DHT22;32845;59.422;17.930;2023-05-16T16:32:58;14.60;99.90
44695;DHT22;32845;59.422;17.930;2023-05-16T16:37:28;14.60;99.90
44695;DHT22;32845;59.422;17.930;2023-05-16T16:41:59;14.60;99.90
44695;DHT22;32845;59.422;17.930;2023-05-16T16:46:29;14.60;99.90
44695;DHT22;32845;59.422;17.930;2023-05-16T16:51:00;14.70;99.90
44695;DHT22;32845;59.422;17.930;2023-05-16T16:55:31;14.70;99.90
44695;DHT22;32845;59.422;17.930;2023-05-16T17:00:02;14.70;99.90
44695;DHT22;32845;59.422;17.930;2023-05-16T17:04:32;14.70;99.90
44695;DHT22;32845;59.422;17.930;2023-05-16T17:09:04;14.60;99.90
44695;DHT22;32845;59.422;17.930;2023-05-16T17:13:36;14.60;99.90
44695;DHT22;32845;59.422;17.930;2023-05-16T17:18:07;14.60;99.90
44695;DHT22;32845;59.422;17.930;2023-05-16T17:22:38;14.50;99.90
44695;DHT22;32845;59.422;17.930;2023-05-16T17:27:09;14.50;99.90
44695;DHT22;32845;59.422;17.930;2023-05-16T17:31:39;14.50;99.90
44695;DHT22;32845;59.422;17.930;2023-05-16T17:36:10;14.50;99.90
44695;DHT22;32845;59.422;17.930;2023-05-16T17:40:40;14.50;99.90
44695;DHT22;32845;59.422;17.930;2023-05-16T17:45:12;14.40;99.90
44695;DHT22;32845;59.422;17.930;2023-05-16T17:49:43;14.40;99.90
44695;DHT22;32845;59.422;17.930;2023-05-16T17:54:16;14.40;99.90
44695;DHT22;32845;59.422;17.930;2023-05-16T17:58:47;14.30;99.90
44695;DHT22;32845;59.422;17.930;2023-05-16T18:03:18;14.30;99.90
44695;DHT22;32845;59.422;17.930;2023-05-16T18:07:49;14.30;99.90
44695;DHT22;32845;59.422;17.930;2023-05-16T18:12:21;14.30;99.90
44695;DHT22;32845;59.422;17.930;2023-05-16T18:16:51;14.20;99.90
44695;DHT22;32845;59.422;17.930;2023-05-16T18:21:23;14.10;99.90
44695;DHT22;32845;59.422;17.930;2023-05-16T18:25:53;14.10;99.90
44695;DHT22;32845;59.422;17.930;2023-05-16T18:30:25;14.00;99.90
44695;DHT22;32845;59.422;17.930;2023-05-16T18:34:55;13.90;99.90
44695;DHT22;32845;59.422;17.930;2023-05-16T18:39:26;13.80;99.90
44695;DHT22;32845;59.422;17.930;2023-05-16T18:43:56;13.80;99.90
44695;DHT22;32845;59.422;17.930;2023-05-16T18:48:27;13.70;99.90
44695;DHT22;32845;59.422;17.930;2023-05-16T18:52:58;13.60;99.90
44695;DHT22;32845;59.422;17.930;2023-05-16T18:57:30;13.40;99.90
44695;DHT22;32845;59.422;17.930;2023-05-16T19:02:01;13.30;99.90
44695;DHT22;32845;59.422;17.930;2023-05-16T19:06:31;13.20;99.90
44695;DHT22;32845;59.422;17.930;2023-05-16T19:11:02;13.20;99.90
44695;DHT22;32845;59.422;17.930;2023-05-16T19:15:36;13.10;99.90
44695;DHT22;32845;59.422;17.930;2023-05-16T19:20:07;13.10;99.90
44695;DHT22;32845;59.422;17.930;2023-05-16T19:24:41;13.00;99.90
44695;DHT22;32845;59.422;17.930;2023-05-16T19:29:11;13.00;99.90
44695;DHT22;32845;59.422;17.930;2023-05-16T19:33:42;13.00;99.90
44695;DHT22;32845;59.422;17.930;2023-05-16T19:38:12;13.00;99.90
44695;DHT22;32845;59.422;17.930;2023-05-16T19:42:43;13.10;99.90
44695;DHT22;32845;59.422;17.930;2023-05-16T19:47:13;13.10;99.90
44695;DHT22;32845;59.422;17.930;2023-05-16T19:51:44;13.10;99.90
44695;DHT22;32845;59.422;17.930;2023-05-16T19:56:15;13.10;99.90
44695;DHT22;32845;59.422;17.930;2023-05-16T20:00:45;13.20;99.90
44695;DHT22;32845;59.422;17.930;2023-05-16T20:05:16;13.10;99.90
44695;DHT22;32845;59.422;17.930;2023-05-16T20:09:49;13.20;99.90
44695;DHT22;32845;59.422;17.930;2023-05-16T20:14:19;13.20;99.90
44695;DHT22;32845;59.422;17.930;2023-05-16T20:18:50;13.20;99.90
44695;DHT22;32845;59.422;17.930;2023-05-16T20:23:20;13.10;99.90
44695;DHT22;32845;59.422;17.930;2023-05-16T20:27:51;13.10;99.90
44695;DHT22;32845;59.422;17.930;2023-05-16T20:32:21;13.10;99.90
44695;DHT22;32845;59.422;17.930;2023-05-16T20:36:52;13.10;99.90
44695;DHT22;32845;59.422;17.930;2023-05-16T20:41:23;13.10;99.90
44695;DHT22;32845;59.422;17.930;2023-05-16T20:45:54;13.00;99.90
44695;DHT22;32845;59.422;17.930;2023-05-16T20:50:24;13.00;99.90
44695;DHT22;32845;59.422;17.930;2023-05-16T20:54:55;13.00;99.90
44695;DHT22;32845;59.422;17.930;2023-05-16T20:59:27;13.00;99.90
44695;DHT22;32845;59.422;17.930;2023-05-16T21:03:58;13.00;99.90
44695;DHT22;32845;59.422;17.930;2023-05-16T21:08:28;12.90;99.90
44695;DHT22;32845;59.422;17.930;2023-05-16T21:12:59;12.80;99.90
44695;DHT22;32845;59.422;17.930;2023-05-16T21:17:29;12.80;99.90
44695;DHT22;32845;59.422;17.930;2023-05-16T21:22:00;12.70;99.90
44695;DHT22;32845;59.422;17.930;2023-05-16T21:26:33;12.60;99.90
44695;DHT22;32845;59.422;17.930;2023-05-16T21:31:03;12.60;99.90
44695;DHT22;32845;59.422;17.930;2023-05-16T21:35:34;12.50;99.90
44695;DHT22;32845;59.422;17.930;2023-05-16T21:40:05;12.50;99.90
44695;DHT22;32845;59.422;17.930;2023-05-16T21:44:38;12.50;99.90
44695;DHT22;32845;59.422;17.930;2023-05-16T21:49:10;12.50;99.90
44695;DHT22;32845;59.422;17.930;2023-05-16T21:53:40;12.50;99.90
44695;DHT22;32845;59.422;17.930;2023-05-16T21:58:11;12.60;99.90
44695;DHT22;32845;59.422;17.930;2023-05-16T22:02:42;12.60;99.90
44695;DHT22;32845;59.422;17.930;2023-05-16T22:07:13;12.60;99.90
44695;DHT22;32845;59.422;17.930;2023-05-16T22:11:43;12.60;99.90
44695;DHT22;32845;59.422;17.930;2023-05-16T22:16:14;12.60;99.90
44695;DHT22;32845;59.422;17.930;2023-05-16T22:20:44;12.60;99.90
44695;DHT22;32845;59.422;17.930;2023-05-16T22:25:15;12.60;99.90
44695;DHT22;32845;59.422;17.930;2023-05-16T22:29:46;12.60;99.90
44695;DHT22;32845;59.422;17.930;2023-05-16T22:34:17;12.60;99.90
44695;DHT22;32845;59.422;17.930;2023-05-16T22:38:47;12.70;99.90
44695;DHT22;32845;59.422;17.930;2023-05-16T22:43:18;12.70;99.90
44695;DHT22;32845;59.422;17.930;2023-05-16T22:47:48;12.60;99.90
44695;DHT22;32845;59.422;17.930;2023-05-16T22:52:19;12.60;99.90
44695;DHT22;32845;59.422;17.930;2023-05-16T22:56:51;12.60;99.90
44695;DHT22;32845;59.422;17.930;2023-05-16T23:01:21;12.60;99.90
44695;DHT22;32845;59.422;17.930;2023-05-16T23:05:54;12.60;99.90
44695;DHT22;32845;59.422;17.930;2023-05-16T23:10:24;12.60;99.90
44695;DHT22;32845;59.422;17.930;2023-05-16T23:14:55;12.60;99.90
44695;DHT22;32845;59.422;17.930;2023-05-16T23:19:27;12.60;99.90
44695;DHT22;32845;59.422;17.930;2023-05-16T23:23:57;12.70;99.90
44695;DHT22;32845;59.422;17.930;2023-05-16T23:28:28;12.70;99.90
44695;DHT22;32845;59.422;17.930;2023-05-16T23:32:59;12.70;99.90
44695;DHT22;32845;59.422;17.930;2023-05-16T23:37:29;12.70;99.90
44695;DHT22;32845;59.422;17.930;2023-05-16T23:42:01;12.70;99.90
44695;DHT22;32845;59.422;17.930;2023-05-16T23:46:32;12.70;99.90
44695;DHT22;32845;59.422;17.930;2023-05-16T23:51:02;12.70;99.90
44695;DHT22;32845;59.422;17.930;2023-05-16T23:55:36;12.70;99.90
